createdAt,value
2022-12-09T00:00:34.474Z,55.88
2022-12-09T00:03:02.199Z,57.70
2022-12-09T00:05:29.560Z,51.22
2022-12-09T00:07:57.100Z,51.55
2022-12-09T00:10:25.869Z,50.78
2022-12-09T00:12:56.373Z,52.47
2022-12-09T00:15:25.983Z,44.15
2022-12-09T00:17:53.348Z,46.97
2022-12-09T00:20:20.947Z,49.28
2022-12-09T00:22:48.208Z,47.53
2022-12-09T00:25:15.668Z,51.65
2022-12-09T00:27:43.204Z,48.13
2022-12-09T00:30:11.828Z,47.13
2022-12-09T00:32:39.807Z,46.50
2022-12-09T00:35:07.535Z,54.55
2022-12-09T00:37:35.511Z,42.55
2022-12-09T00:40:03.286Z,43.33
2022-12-09T00:42:30.950Z,39.50
2022-12-09T00:44:58.273Z,38.08
2022-12-09T00:47:25.979Z,33.65
2022-12-09T00:49:53.626Z,36.05
2022-12-09T00:52:21.022Z,50.08
2022-12-09T00:54:48.606Z,51.08
2022-12-09T00:57:15.960Z,50.97
2022-12-09T00:59:43.457Z,57.05
2022-12-09T01:02:11.627Z,56.97
2022-12-09T01:04:39.198Z,61.85
2022-12-09T01:07:07.033Z,60.83
2022-12-09T01:09:34.954Z,52.08
2022-12-09T01:12:04.044Z,57.88
2022-12-09T01:14:31.534Z,57.90
2022-12-09T01:16:58.897Z,54.83
2022-12-09T01:19:26.425Z,58.95
2022-12-09T01:21:55.601Z,53.67
2022-12-09T01:24:23.110Z,61.00
2022-12-09T01:26:50.724Z,60.00
2022-12-09T01:29:19.604Z,61.27
2022-12-09T01:31:47.771Z,55.92
2022-12-09T01:34:15.696Z,59.28
2022-12-09T01:36:43.411Z,58.80
2022-12-09T01:39:11.089Z,58.13
2022-12-09T01:41:38.862Z,64.47
2022-12-09T01:44:26.220Z,63.63
2022-12-09T01:47:02.417Z,64.82
2022-12-09T01:49:39.120Z,70.03
2022-12-09T01:52:32.856Z,62.60
2022-12-09T01:55:00.212Z,62.80
2022-12-09T01:57:27.708Z,59.72
2022-12-09T01:59:55.542Z,64.45
2022-12-09T02:02:24.215Z,65.35
2022-12-09T02:04:52.581Z,62.10
2022-12-09T02:07:20.521Z,62.55
2022-12-09T02:09:53.496Z,70.47
2022-12-09T02:12:53.043Z,62.13
2022-12-09T02:15:39.662Z,67.93
2022-12-09T02:18:42.931Z,67.78
2022-12-09T02:21:19.816Z,62.72
2022-12-09T02:24:03.163Z,65.13
2022-12-09T02:26:38.532Z,62.58
2022-12-09T02:29:08.615Z,67.80
2022-12-09T02:31:55.769Z,60.45
2022-12-09T02:34:27.461Z,63.97
2022-12-09T02:37:25.941Z,65.38
2022-12-09T02:40:18.660Z,69.63
2022-12-09T02:42:48.266Z,64.45
2022-12-09T02:45:17.446Z,71.53
2022-12-09T02:47:51.162Z,70.85
2022-12-09T02:50:22.862Z,66.57
2022-12-09T02:52:51.749Z,72.93
2022-12-09T02:55:21.039Z,73.63
2022-12-09T03:00:20.635Z,70.05
2022-12-09T03:02:50.911Z,69.18
2022-12-09T03:05:41.439Z,74.45
2022-12-09T03:08:09.270Z,72.70
2022-12-09T03:10:52.186Z,70.72
2022-12-09T03:13:37.739Z,70.63
2022-12-09T03:16:16.907Z,68.22
2022-12-09T03:18:49.043Z,69.73
2022-12-09T03:21:18.850Z,66.45
2022-12-09T03:23:46.820Z,62.42
2022-12-09T03:26:15.798Z,60.58
2022-12-09T03:28:47.967Z,53.05
2022-12-09T03:31:19.166Z,48.47
2022-12-09T03:33:49.683Z,55.83
2022-12-09T03:36:17.969Z,56.55
2022-12-09T03:38:47.013Z,51.95
2022-12-09T03:41:28.615Z,47.50
2022-12-09T03:44:01.700Z,52.03
2022-12-09T03:46:30.565Z,49.88
2022-12-09T03:48:58.128Z,52.38
2022-12-09T03:51:49.070Z,54.58
2022-12-09T03:54:20.988Z,53.47
2022-12-09T03:56:53.329Z,56.63
2022-12-09T03:59:21.927Z,46.58
2022-12-09T04:01:49.579Z,46.28
2022-12-09T04:04:17.294Z,49.08
2022-12-09T04:06:44.841Z,50.58
2022-12-09T04:09:12.560Z,53.05
2022-12-09T04:11:40.033Z,51.25
2022-12-09T04:14:13.683Z,53.63
2022-12-09T04:16:43.512Z,47.63
2022-12-09T04:19:10.989Z,50.40
2022-12-09T04:21:38.637Z,45.90
2022-12-09T04:24:06.523Z,48.72
2022-12-09T04:26:34.367Z,51.20
2022-12-09T04:29:01.914Z,46.25
2022-12-09T04:31:29.388Z,49.42
2022-12-09T04:33:57.435Z,48.08
2022-12-09T04:36:25.103Z,48.13
2022-12-09T04:38:52.489Z,44.58
2022-12-09T04:41:19.854Z,45.38
2022-12-09T04:43:47.471Z,48.80
2022-12-09T04:46:19.532Z,46.22
2022-12-09T04:48:47.691Z,48.78
2022-12-09T04:51:16.343Z,50.13
2022-12-09T04:53:43.900Z,45.35
2022-12-09T04:56:14.561Z,42.40
2022-12-09T04:58:43.600Z,42.47
2022-12-09T05:01:13.757Z,45.93
2022-12-09T05:03:41.379Z,43.90
2022-12-09T05:06:12.616Z,41.90
2022-12-09T05:08:41.378Z,44.08
2022-12-09T05:11:09.186Z,43.00
2022-12-09T05:13:37.009Z,46.35
2022-12-09T05:16:13.747Z,45.88
2022-12-09T05:18:43.969Z,48.03
2022-12-09T05:21:15.144Z,47.67
2022-12-09T05:23:43.061Z,48.50
2022-12-09T05:26:13.923Z,47.60
2022-12-09T05:28:41.626Z,42.38
2022-12-09T05:31:18.151Z,40.17
2022-12-09T05:33:46.793Z,42.03
2022-12-09T05:36:17.069Z,44.65
2022-12-09T05:38:45.137Z,45.15
2022-12-09T05:41:12.770Z,45.47
2022-12-09T05:43:41.068Z,42.05
2022-12-09T05:46:09.426Z,41.30
2022-12-09T05:48:37.357Z,43.95
2022-12-09T05:51:06.564Z,39.47
2022-12-09T05:53:34.630Z,44.40
2022-12-09T05:56:02.385Z,36.75
2022-12-09T05:58:30.377Z,43.13
2022-12-09T06:01:04.948Z,36.50
2022-12-09T06:03:32.623Z,38.28
2022-12-09T06:06:14.878Z,37.60
2022-12-09T06:08:43.875Z,36.78
2022-12-09T06:11:14.606Z,39.63
2022-12-09T06:13:42.919Z,36.17
2022-12-09T06:16:11.389Z,40.25
2022-12-09T06:18:39.426Z,38.80
2022-12-09T06:21:09.258Z,38.88
2022-12-09T06:26:05.659Z,35.95
2022-12-09T06:28:34.035Z,35.33
2022-12-09T06:31:01.703Z,33.50
2022-12-09T06:33:53.770Z,31.25
2022-12-09T06:36:16.960Z,32.95
2022-12-09T06:38:44.472Z,40.35
2022-12-09T06:41:14.430Z,36.70
2022-12-09T06:43:41.978Z,35.85
2022-12-09T06:46:14.613Z,33.17
2022-12-09T06:48:42.766Z,36.33
2022-12-09T06:51:10.539Z,33.33
2022-12-09T06:53:38.590Z,33.15
2022-12-09T06:56:11.902Z,35.25
2022-12-09T06:58:41.356Z,33.05
2022-12-09T07:01:13.750Z,34.67
2022-12-09T07:03:43.767Z,34.30
2022-12-09T07:06:23.606Z,38.45
2022-12-09T07:11:18.486Z,40.63
2022-12-09T07:13:46.085Z,42.80
2022-12-09T07:16:13.586Z,42.67
2022-12-09T07:18:41.401Z,42.25
2022-12-09T07:21:15.133Z,43.70
2022-12-09T07:23:42.888Z,42.22
2022-12-09T07:26:10.792Z,47.50
2022-12-09T07:28:42.707Z,45.45
2022-12-09T07:31:22.648Z,50.78
2022-12-09T07:33:51.718Z,38.75
2022-12-09T07:36:21.582Z,41.47
2022-12-09T07:38:57.982Z,41.00
2022-12-09T07:41:25.930Z,42.80
2022-12-09T07:43:54.426Z,64.03
2022-12-09T07:46:23.848Z,50.83
2022-12-09T07:48:51.994Z,34.47
2022-12-09T07:51:19.878Z,33.80
2022-12-09T07:53:47.837Z,37.78
2022-12-09T07:56:16.969Z,33.58
2022-12-09T07:58:47.087Z,32.70
2022-12-09T08:03:43.827Z,33.65
2022-12-09T08:06:14.040Z,33.15
2022-12-09T08:11:11.990Z,34.92
2022-12-09T08:13:42.452Z,31.27
2022-12-09T08:16:12.413Z,38.90
2022-12-09T08:18:41.376Z,37.30
2022-12-09T08:21:14.023Z,37.67
2022-12-09T08:23:41.901Z,28.10
2022-12-09T08:26:10.643Z,31.85
2022-12-09T08:28:38.750Z,32.73
2022-12-09T08:31:12.474Z,33.30
2022-12-09T08:33:40.775Z,38.95
2022-12-09T08:36:13.946Z,37.47
2022-12-09T08:38:42.054Z,35.92
2022-12-09T08:41:38.928Z,34.05
2022-12-09T08:44:11.082Z,39.08
2022-12-09T08:46:42.891Z,30.30
2022-12-09T08:49:11.720Z,30.33
2022-12-09T08:51:39.685Z,29.25
2022-12-09T08:54:07.745Z,33.17
2022-12-09T08:56:35.382Z,31.40
2022-12-09T08:59:03.868Z,32.05
2022-12-09T09:01:35.340Z,32.13
2022-12-09T09:04:06.466Z,31.08
2022-12-09T09:06:34.647Z,31.70
2022-12-09T09:09:03.048Z,37.85
2022-12-09T09:11:30.895Z,34.10
2022-12-09T09:13:58.782Z,31.02
2022-12-09T09:16:27.406Z,30.70
2022-12-09T09:18:55.379Z,36.92
2022-12-09T09:21:26.847Z,33.95
2022-12-09T09:23:54.814Z,38.03
2022-12-09T09:26:25.970Z,33.88
2022-12-09T09:28:55.218Z,50.15
2022-12-09T09:31:25.880Z,41.55
2022-12-09T09:33:53.937Z,41.25
2022-12-09T09:36:24.115Z,46.63
2022-12-09T09:38:55.046Z,41.22
2022-12-09T09:41:42.032Z,46.70
2022-12-09T09:44:29.669Z,44.38
2022-12-09T09:46:58.533Z,43.83
2022-12-09T09:49:57.371Z,45.50
2022-12-09T09:52:27.547Z,47.03
2022-12-09T09:54:55.835Z,41.78
2022-12-09T09:57:35.994Z,35.65
2022-12-09T10:00:30.131Z,38.78
2022-12-09T10:03:14.922Z,37.22
2022-12-09T10:05:55.204Z,42.30
2022-12-09T10:08:29.031Z,44.35
2022-12-09T10:11:19.468Z,42.63
2022-12-09T10:14:07.031Z,45.30
2022-12-09T10:16:53.302Z,39.28
2022-12-09T10:19:30.084Z,42.53
2022-12-09T10:21:59.902Z,43.40
2022-12-09T10:24:35.876Z,43.63
2022-12-09T10:30:10.954Z,40.47
2022-12-09T10:32:40.332Z,42.45
2022-12-09T10:35:34.655Z,42.50
2022-12-09T10:38:16.254Z,49.65
2022-12-09T10:40:47.124Z,43.67
2022-12-09T10:43:35.483Z,47.65
2022-12-09T10:46:21.195Z,47.10
2022-12-09T10:48:49.750Z,47.78
2022-12-09T10:51:28.005Z,44.33
2022-12-09T10:54:19.331Z,46.53
2022-12-09T10:57:23.654Z,52.88
2022-12-09T10:59:58.468Z,48.22
2022-12-09T11:02:27.852Z,46.03
2022-12-09T11:04:55.950Z,46.67
2022-12-09T11:07:28.110Z,47.08
2022-12-09T11:09:56.352Z,46.33
2022-12-09T11:12:27.439Z,40.53
2022-12-09T11:14:58.384Z,37.63
2022-12-09T11:17:35.927Z,41.53
2022-12-09T11:20:07.519Z,39.17
2022-12-09T11:22:41.278Z,39.35
2022-12-09T11:25:12.251Z,51.95
2022-12-09T11:27:48.088Z,40.00
2022-12-09T11:30:31.894Z,41.78
2022-12-09T11:33:07.864Z,43.95
2022-12-09T11:35:44.924Z,45.20
2022-12-09T11:38:22.927Z,56.25
2022-12-09T11:41:11.951Z,56.65
2022-12-09T11:43:48.380Z,81.90
2022-12-09T11:46:27.152Z,69.25
2022-12-09T11:48:54.465Z,56.42
2022-12-09T11:51:40.790Z,54.75
2022-12-09T11:54:45.702Z,52.58
2022-12-09T11:57:32.115Z,50.72
2022-12-09T12:00:04.657Z,51.90
2022-12-09T12:02:41.057Z,59.10
2022-12-09T12:05:27.511Z,53.50
2022-12-09T12:08:22.658Z,56.35
2022-12-09T12:10:52.862Z,53.13
2022-12-09T12:13:35.468Z,48.35
2022-12-09T12:16:11.510Z,47.33
2022-12-09T12:18:47.870Z,40.42
2022-12-09T12:21:33.530Z,48.28
2022-12-09T12:24:34.301Z,56.28
2022-12-09T12:27:15.687Z,56.78
2022-12-09T12:30:06.456Z,59.17
2022-12-09T12:33:53.103Z,59.40
2022-12-09T12:36:23.515Z,53.40
2022-12-09T12:38:58.809Z,63.03
2022-12-09T12:41:39.013Z,67.30
2022-12-09T12:44:45.113Z,56.00
2022-12-09T12:47:21.103Z,52.20
2022-12-09T12:50:03.768Z,63.05
2022-12-09T12:53:01.334Z,53.60
2022-12-09T12:55:43.912Z,55.47
2022-12-09T12:58:20.475Z,55.10
2022-12-09T13:01:00.802Z,84.78
2022-12-09T13:03:36.791Z,68.47
2022-12-09T13:06:04.447Z,57.45
2022-12-09T13:08:46.903Z,49.15
2022-12-09T13:11:18.585Z,50.22
2022-12-09T13:13:53.063Z,51.55
2022-12-09T13:16:30.107Z,51.40
2022-12-09T13:19:12.505Z,45.00
2022-12-09T13:21:40.177Z,51.50
2022-12-09T13:24:27.727Z,52.40
2022-12-09T13:27:18.676Z,50.33
2022-12-09T13:29:54.857Z,44.65
2022-12-09T13:33:15.797Z,46.10
2022-12-09T13:35:54.845Z,42.15
2022-12-09T13:38:36.484Z,45.47
2022-12-09T13:41:51.665Z,45.50
2022-12-09T13:44:19.369Z,42.70
2022-12-09T13:46:46.978Z,42.25
2022-12-09T13:49:21.682Z,37.13
2022-12-09T13:51:51.643Z,40.72
2022-12-09T13:57:13.060Z,40.40
2022-12-09T13:59:54.266Z,40.97
2022-12-09T14:02:26.180Z,37.13
2022-12-09T14:04:53.435Z,49.70
2022-12-09T14:07:30.860Z,36.28
2022-12-09T14:10:00.294Z,36.17
2022-12-09T14:12:28.468Z,36.45
2022-12-09T14:14:57.843Z,46.03
2022-12-09T14:17:25.137Z,31.75
2022-12-09T14:20:01.408Z,40.97
2022-12-09T14:22:34.216Z,40.58
2022-12-09T14:25:26.130Z,37.35
2022-12-09T14:28:11.968Z,35.33
2022-12-09T14:30:48.927Z,33.75
2022-12-09T14:33:44.750Z,43.30
2022-12-09T14:36:15.178Z,45.30
2022-12-09T14:39:16.080Z,31.63
2022-12-09T14:41:48.382Z,32.50
2022-12-09T14:44:36.169Z,32.92
2022-12-09T14:47:16.851Z,36.83
2022-12-09T14:49:49.158Z,32.05
2022-12-09T14:52:31.216Z,34.50
2022-12-09T14:55:01.781Z,31.92
2022-12-09T14:57:34.633Z,39.72
2022-12-09T15:00:02.216Z,30.52
2022-12-09T15:02:31.180Z,31.15
2022-12-09T15:05:01.516Z,30.83
2022-12-09T15:07:32.975Z,32.95
2022-12-09T15:10:03.390Z,30.30
2022-12-09T15:12:42.422Z,27.20
2022-12-09T15:15:22.420Z,29.63
2022-12-09T15:17:58.931Z,31.95
2022-12-09T15:20:35.142Z,38.03
2022-12-09T15:23:06.083Z,32.00
2022-12-09T15:25:37.082Z,28.40
2022-12-09T15:28:13.049Z,31.20
2022-12-09T15:30:40.287Z,31.80
2022-12-09T15:33:19.783Z,30.63
2022-12-09T15:35:57.595Z,31.38
2022-12-09T15:38:27.654Z,29.75
2022-12-09T15:41:15.007Z,31.88
2022-12-09T15:43:42.848Z,33.20
2022-12-09T15:46:11.214Z,33.92
2022-12-09T15:48:43.161Z,30.52
2022-12-09T15:51:15.324Z,29.02
2022-12-09T15:53:53.521Z,36.00
2022-12-09T15:56:38.683Z,45.95
2022-12-09T15:59:14.198Z,28.83
2022-12-09T16:01:47.308Z,35.72
2022-12-09T16:04:17.628Z,32.25
2022-12-09T16:06:45.011Z,33.17
2022-12-09T16:09:13.859Z,32.53
2022-12-09T16:11:45.507Z,30.90
2022-12-09T16:14:13.592Z,29.65
2022-12-09T16:16:45.470Z,31.63
2022-12-09T16:19:25.022Z,33.72
2022-12-09T16:22:06.731Z,32.17
2022-12-09T16:25:06.284Z,32.22
2022-12-09T16:27:25.798Z,33.22
2022-12-09T16:29:56.957Z,34.00
2022-12-09T16:32:34.161Z,32.42
2022-12-09T16:35:11.115Z,32.95
2022-12-09T16:37:43.947Z,37.08
2022-12-09T16:40:23.653Z,33.70
2022-12-09T16:42:53.766Z,33.70
2022-12-09T16:45:30.608Z,35.08
2022-12-09T16:47:59.138Z,31.77
2022-12-09T16:50:30.498Z,32.50
2022-12-09T16:52:58.746Z,36.33
2022-12-09T16:55:28.232Z,30.67
2022-12-09T16:57:59.000Z,35.42
2022-12-09T17:00:26.525Z,30.77
2022-12-09T17:03:05.680Z,33.30
2022-12-09T17:05:33.110Z,37.35
2022-12-09T17:08:00.568Z,30.75
2022-12-09T17:10:27.877Z,32.60
2022-12-09T17:12:55.281Z,31.77
2022-12-09T17:15:22.616Z,36.35
2022-12-09T17:17:50.032Z,37.92
2022-12-09T17:20:17.302Z,28.27
2022-12-09T17:22:44.535Z,35.58
2022-12-09T17:25:11.803Z,35.13
2022-12-09T17:27:39.291Z,32.58
2022-12-09T17:30:07.258Z,33.50
2022-12-09T17:32:34.652Z,31.75
2022-12-09T17:35:01.931Z,32.75
2022-12-09T17:37:29.268Z,40.70
2022-12-09T17:40:03.237Z,30.98
2022-12-09T17:42:31.202Z,34.35
2022-12-09T17:44:58.659Z,39.97
2022-12-09T17:47:27.172Z,34.53
2022-12-09T17:49:54.420Z,34.33
2022-12-09T17:52:21.699Z,35.63
2022-12-09T17:54:49.006Z,36.13
2022-12-09T17:57:16.254Z,37.05
2022-12-09T17:59:43.454Z,37.53
2022-12-09T18:02:11.481Z,34.53
2022-12-09T18:04:38.865Z,32.60
2022-12-09T18:07:06.088Z,36.03
2022-12-09T18:09:33.600Z,36.55
2022-12-09T18:12:00.941Z,44.40
2022-12-09T18:14:28.438Z,39.60
2022-12-09T18:16:55.941Z,37.10
2022-12-09T18:19:24.957Z,37.85
2022-12-09T18:21:55.585Z,38.17
2022-12-09T18:24:23.146Z,37.42
2022-12-09T18:26:50.806Z,37.22
2022-12-09T18:29:18.415Z,35.90
2022-12-09T18:31:46.145Z,37.90
2022-12-09T18:34:13.973Z,35.85
2022-12-09T18:36:41.324Z,37.22
2022-12-09T18:39:08.704Z,41.42
2022-12-09T18:41:36.099Z,36.92
2022-12-09T18:44:06.726Z,32.95
2022-12-09T18:46:38.924Z,42.95
2022-12-09T18:49:08.936Z,35.53
2022-12-09T18:54:04.509Z,42.33
2022-12-09T18:56:32.451Z,40.20
2022-12-09T18:59:08.614Z,45.67
2022-12-09T19:01:40.362Z,43.13
2022-12-09T19:04:22.943Z,41.53
2022-12-09T19:06:52.288Z,41.28
2022-12-09T19:09:22.590Z,42.38
2022-12-09T19:11:50.995Z,40.38
2022-12-09T19:14:19.541Z,45.65
2022-12-09T19:16:47.085Z,42.08
2022-12-09T19:19:16.893Z,45.15
2022-12-09T19:21:45.038Z,37.58
2022-12-09T19:24:24.071Z,48.00
2022-12-09T19:26:53.782Z,50.27
2022-12-09T19:29:21.709Z,47.13
2022-12-09T19:31:50.347Z,46.35
2022-12-09T19:34:17.560Z,43.60
2022-12-09T19:36:45.992Z,40.72
2022-12-09T19:39:14.375Z,46.95
2022-12-09T19:41:43.095Z,45.38
2022-12-09T19:44:15.388Z,41.33
2022-12-09T19:46:45.830Z,48.05
2022-12-09T19:49:15.050Z,41.60
2022-12-09T19:51:42.909Z,46.33
2022-12-09T19:54:10.624Z,42.17
2022-12-09T19:56:38.014Z,46.67
2022-12-09T19:59:06.163Z,46.22
2022-12-09T20:01:36.017Z,47.88
2022-12-09T20:04:48.200Z,40.55
2022-12-09T20:07:10.547Z,58.70
2022-12-09T20:09:38.012Z,43.88
2022-12-09T20:12:05.632Z,41.83
2022-12-09T20:14:33.038Z,43.10
2022-12-09T20:17:00.564Z,42.00
2022-12-09T20:19:27.931Z,38.92
2022-12-09T20:21:55.235Z,44.40
2022-12-09T20:24:22.774Z,46.63
2022-12-09T20:26:50.180Z,44.38
2022-12-09T20:29:17.587Z,43.55
2022-12-09T20:31:45.064Z,42.78
2022-12-09T20:34:14.895Z,42.75
2022-12-09T20:36:43.580Z,44.38
2022-12-09T20:39:17.566Z,46.42
2022-12-09T20:41:45.316Z,44.33
2022-12-09T20:44:13.737Z,41.88
2022-12-09T20:46:45.971Z,41.67
2022-12-09T20:49:13.376Z,40.85
2022-12-09T20:51:48.648Z,44.00
2022-12-09T20:54:16.313Z,40.42
2022-12-09T20:56:43.920Z,33.40
2022-12-09T20:59:14.470Z,39.42
2022-12-09T21:01:43.453Z,34.88
2022-12-09T21:04:10.892Z,34.40
2022-12-09T21:06:39.466Z,33.08
2022-12-09T21:09:09.803Z,37.20
2022-12-09T21:11:38.700Z,34.95
2022-12-09T21:14:09.624Z,39.55
2022-12-09T21:16:41.482Z,40.53
2022-12-09T21:19:12.691Z,34.90
2022-12-09T21:21:41.632Z,42.80
2022-12-09T21:24:12.160Z,39.60
2022-12-09T21:26:40.408Z,48.20
2022-12-09T21:29:08.563Z,47.47
2022-12-09T21:31:38.127Z,56.00
2022-12-09T21:34:06.922Z,51.63
2022-12-09T21:36:36.462Z,50.28
2022-12-09T21:39:04.816Z,55.05
2022-12-09T21:41:34.387Z,55.17
2022-12-09T21:46:35.413Z,51.65
2022-12-09T21:49:04.581Z,51.88
2022-12-09T21:51:35.579Z,51.38
2022-12-09T21:54:03.666Z,55.10
2022-12-09T21:56:32.830Z,49.90
2022-12-09T21:59:00.507Z,54.70
2022-12-09T22:01:34.062Z,51.75
2022-12-09T22:04:02.630Z,51.75
2022-12-09T22:06:30.520Z,56.47
2022-12-09T22:08:59.765Z,50.05
2022-12-09T22:11:29.793Z,56.33
2022-12-09T22:13:58.534Z,51.65
2022-12-09T22:16:28.712Z,52.05
2022-12-09T22:18:57.884Z,52.65
2022-12-09T22:21:28.226Z,50.10
2022-12-09T22:24:02.891Z,57.17
2022-12-09T22:26:30.945Z,51.30
2022-12-09T22:29:02.576Z,49.55
2022-12-09T22:31:32.771Z,48.28
2022-12-09T22:34:12.120Z,48.58
2022-12-09T22:36:41.055Z,46.42
2022-12-09T22:39:12.125Z,53.28
2022-12-09T22:41:39.482Z,49.95
2022-12-09T22:44:06.821Z,49.17
2022-12-09T22:46:34.410Z,49.30
2022-12-09T22:49:04.703Z,54.40
2022-12-09T22:51:34.734Z,57.00
2022-12-09T22:54:04.773Z,57.22
2022-12-09T22:59:00.155Z,63.03
2022-12-09T23:01:29.543Z,57.55
2022-12-09T23:03:58.296Z,59.22
2022-12-09T23:06:26.667Z,61.47
2022-12-09T23:08:54.179Z,55.78
2022-12-09T23:11:26.180Z,62.92
2022-12-09T23:13:55.016Z,65.68
2022-12-09T23:16:24.014Z,65.85
2022-12-09T23:18:52.445Z,69.20
2022-12-09T23:21:27.480Z,67.40
2022-12-09T23:23:56.850Z,65.55
2022-12-09T23:26:28.235Z,67.28
2022-12-09T23:28:58.400Z,63.17
2022-12-09T23:31:32.565Z,61.90
2022-12-09T23:34:00.821Z,67.10
2022-12-09T23:36:34.483Z,61.78
2022-12-09T23:39:04.312Z,63.17
2022-12-09T23:43:58.724Z,55.75
2022-12-09T23:46:29.566Z,57.45
2022-12-09T23:48:57.303Z,60.05
2022-12-09T23:51:27.254Z,62.30
2022-12-09T23:56:24.506Z,59.13
2022-12-09T23:58:56.512Z,56.30
